Main page
METAR-TAF:

METAR-TAF

Airports :

Isle of Man,

Isle of Man Airport

latitude: 54-05N, longitude: 004-38W, elevation: 17 m

Current weather observation

The report was made 28 minutes ago, at 17:20 UTC
Wind 10 kt from the South/Southwest
Temperature 9°C
Humidity 71%
Pressure 1015 hPa
Visibility 10 km or more
Few clouds at a height of 2500 ft
Broken clouds at a height of 4500 ft

METAR: EGNS 281720Z 21010KT 9999 FEW025 BKN045 09/04 Q1015 NOSIG

Time: 18:48 (17:48 UTC)

Forecast

The report was made 48 minutes ago, at 17:00 UTC
Forecast valid from 28 at 18 UTC to 28 at 21 UTC
Wind 10 kt from the Southwest
Visibility 10 km or more
Broken clouds at a height of 4000 ft

TAF: EGNS 281700Z 2818/2821 22010KT 9999 BKN040

Weather observations and forecasts of more than 4000 airports (METAR and TAF reports).

The available stations are represented by yellow and red dots on the map.

Hover mouse over dot to see the name of the station.

Then click to see weather observations and forecasts.

To change the map : click on the green buttons with a black cross to zoom in, on the green button with a dash to zoom out, or on the green arrows for adjacent maps.


METAR-TAF: